sensor_id;sensor_type;location;lat;lon;timestamp;pressure;altitude;pressure_sealevel;temperature;humidity
71126;BME280;58785;55.566;38.058;2023-04-01T00:01:10;98915.56;;;3.58;78.76
71126;BME280;58785;55.566;38.058;2023-04-01T00:03:39;98925.59;;;3.64;78.79
71126;BME280;58785;55.566;38.058;2023-04-01T00:06:04;98920.31;;;3.64;78.49
71126;BME280;58785;55.566;38.058;2023-04-01T00:08:30;98912.78;;;3.60;78.66
71126;BME280;58785;55.566;38.058;2023-04-01T00:10:56;98921.28;;;3.63;78.45
71126;BME280;58785;55.566;38.058;2023-04-01T00:13:23;98907.78;;;3.57;78.86
71126;BME280;58785;55.566;38.058;2023-04-01T00:15:49;98915.41;;;3.60;78.89
71126;BME280;58785;55.566;38.058;2023-04-01T00:18:15;98913.88;;;3.57;78.86
71126;BME280;58785;55.566;38.058;2023-04-01T00:20:45;98918.06;;;3.60;78.83
71126;BME280;58785;55.566;38.058;2023-04-01T00:23:12;98919.75;;;3.61;78.65
71126;BME280;58785;55.566;38.058;2023-04-01T00:25:38;98910.28;;;3.58;78.44
71126;BME280;58785;55.566;38.058;2023-04-01T00:28:03;98912.09;;;3.58;78.39
71126;BME280;58785;55.566;38.058;2023-04-01T00:30:29;98897.66;;;3.52;78.46
71126;BME280;58785;55.566;38.058;2023-04-01T00:32:55;98910.88;;;3.62;78.92
71126;BME280;58785;55.566;38.058;2023-04-01T00:35:21;98922.38;;;3.61;78.91
71126;BME280;58785;55.566;38.058;2023-04-01T00:37:48;98929.31;;;3.62;78.75
71126;BME280;58785;55.566;38.058;2023-04-01T00:40:43;98925.84;;;3.61;78.72
71126;BME280;58785;55.566;38.058;2023-04-01T00:43:18;98922.50;;;3.59;78.44
71126;BME280;58785;55.566;38.058;2023-04-01T00:45:45;98920.69;;;3.60;78.70
71126;BME280;58785;55.566;38.058;2023-04-01T00:48:16;98908.75;;;3.56;78.52
71126;BME280;58785;55.566;38.058;2023-04-01T00:50:48;98920.69;;;3.60;78.54
71126;BME280;58785;55.566;38.058;2023-04-01T00:53:16;98919.84;;;3.59;78.70
71126;BME280;58785;55.566;38.058;2023-04-01T00:55:49;98928.19;;;3.55;78.73
71126;BME280;58785;55.566;38.058;2023-04-01T00:58:19;98919.72;;;3.51;78.75
71126;BME280;58785;55.566;38.058;2023-04-01T01:00:46;98925.81;;;3.52;79.27
71126;BME280;58785;55.566;38.058;2023-04-01T01:03:14;98933.97;;;3.49;79.09
71126;BME280;58785;55.566;38.058;2023-04-01T01:05:59;98923.56;;;3.47;78.73
71126;BME280;58785;55.566;38.058;2023-04-01T01:08:51;98929.78;;;3.46;78.74
71126;BME280;58785;55.566;38.058;2023-04-01T01:11:24;98922.72;;;3.46;79.06
71126;BME280;58785;55.566;38.058;2023-04-01T01:14:12;98915.34;;;3.40;79.24
71126;BME280;58785;55.566;38.058;2023-04-01T01:16:45;98916.91;;;3.43;78.97
71126;BME280;58785;55.566;38.058;2023-04-01T01:19:33;98912.47;;;3.43;79.06
71126;BME280;58785;55.566;38.058;2023-04-01T01:27:32;98914.41;;;3.41;79.18
71126;BME280;58785;55.566;38.058;2023-04-01T01:30:44;98904.22;;;3.37;79.42
71126;BME280;58785;55.566;38.058;2023-04-01T01:33:19;98913.44;;;3.42;78.80
71126;BME280;58785;55.566;38.058;2023-04-01T01:35:52;98903.25;;;3.38;78.98
71126;BME280;58785;55.566;38.058;2023-04-01T01:38:27;98900.91;;;3.35;78.84
71126;BME280;58785;55.566;38.058;2023-04-01T01:40:55;98916.19;;;3.41;78.63
71126;BME280;58785;55.566;38.058;2023-04-01T01:43:30;98918.41;;;3.45;78.97
71126;BME280;58785;55.566;38.058;2023-04-01T01:46:00;98919.41;;;3.44;79.12
71126;BME280;58785;55.566;38.058;2023-04-01T01:48:28;98907.69;;;3.37;78.91
71126;BME280;58785;55.566;38.058;2023-04-01T01:50:54;98915.03;;;3.34;78.96
71126;BME280;58785;55.566;38.058;2023-04-01T01:53:20;98918.50;;;3.34;78.96
71126;BME280;58785;55.566;38.058;2023-04-01T01:55:48;98930.31;;;3.40;79.16
71126;BME280;58785;55.566;38.058;2023-04-01T01:58:24;98927.13;;;3.36;79.21
71126;BME280;58785;55.566;38.058;2023-04-01T02:01:13;98931.13;;;3.40;79.09
71126;BME280;58785;55.566;38.058;2023-04-01T02:03:42;98928.09;;;3.35;78.79
71126;BME280;58785;55.566;38.058;2023-04-01T02:06:12;98929.63;;;3.38;79.33
71126;BME280;58785;55.566;38.058;2023-04-01T02:08:51;98942.53;;;3.41;79.15
71126;BME280;58785;55.566;38.058;2023-04-01T02:11:19;98925.59;;;3.34;78.76
71126;BME280;58785;55.566;38.058;2023-04-01T02:13:58;98941.81;;;3.39;78.82
71126;BME280;58785;55.566;38.058;2023-04-01T02:16:55;98937.13;;;3.42;79.10
71126;BME280;58785;55.566;38.058;2023-04-01T02:19:25;98938.94;;;3.42;79.17
71126;BME280;58785;55.566;38.058;2023-04-01T02:21:56;98948.75;;;3.40;79.24
71126;BME280;58785;55.566;38.058;2023-04-01T02:24:25;98945.28;;;3.39;78.84
71126;BME280;58785;55.566;38.058;2023-04-01T02:26:52;98940.41;;;3.35;79.07
71126;BME280;58785;55.566;38.058;2023-04-01T02:29:20;98936.00;;;3.35;79.01
71126;BME280;58785;55.566;38.058;2023-04-01T02:31:47;98936.13;;;3.34;78.96
71126;BME280;58785;55.566;38.058;2023-04-01T02:34:14;98938.63;;;3.35;79.23
71126;BME280;58785;55.566;38.058;2023-04-01T02:36:39;98942.09;;;3.36;78.80
71126;BME280;58785;55.566;38.058;2023-04-01T02:39:05;98933.34;;;3.35;79.10
71126;BME280;58785;55.566;38.058;2023-04-01T02:41:38;98937.38;;;3.39;79.18
71126;BME280;58785;55.566;38.058;2023-04-01T02:44:04;98927.63;;;3.30;79.36
71126;BME280;58785;55.566;38.058;2023-04-01T02:46:30;98939.72;;;3.33;79.07
71126;BME280;58785;55.566;38.058;2023-04-01T02:48:55;98943.06;;;3.35;79.10
71126;BME280;58785;55.566;38.058;2023-04-01T02:51:21;98939.31;;;3.37;79.39
71126;BME280;58785;55.566;38.058;2023-04-01T02:53:47;98934.19;;;3.36;78.71
71126;BME280;58785;55.566;38.058;2023-04-01T02:56:12;98933.50;;;3.34;79.14
71126;BME280;58785;55.566;38.058;2023-04-01T02:58:38;98944.31;;;3.40;79.00
71126;BME280;58785;55.566;38.058;2023-04-01T03:01:04;98947.91;;;3.39;79.03
71126;BME280;58785;55.566;38.058;2023-04-01T03:03:29;98948.75;;;3.40;79.24
71126;BME280;58785;55.566;38.058;2023-04-01T03:05:55;98943.75;;;3.37;79.48
71126;BME280;58785;55.566;38.058;2023-04-01T03:08:21;98950.31;;;3.42;79.12
71126;BME280;58785;55.566;38.058;2023-04-01T03:10:47;98951.97;;;3.43;79.07
71126;BME280;58785;55.566;38.058;2023-04-01T03:13:12;98951.38;;;3.40;79.10
71126;BME280;58785;55.566;38.058;2023-04-01T03:15:38;98958.47;;;3.39;79.05
71126;BME280;58785;55.566;38.058;2023-04-01T03:18:04;98962.66;;;3.42;78.99
71126;BME280;58785;55.566;38.058;2023-04-01T03:20:29;98962.38;;;3.45;78.81
71126;BME280;58785;55.566;38.058;2023-04-01T03:22:55;98965.16;;;3.43;78.83
71126;BME280;58785;55.566;38.058;2023-04-01T03:25:21;98961.69;;;3.43;78.95
71126;BME280;58785;55.566;38.058;2023-04-01T03:27:46;98965.03;;;3.45;79.07
71126;BME280;58785;55.566;38.058;2023-04-01T03:30:12;98963.22;;;3.45;78.91
71126;BME280;58785;55.566;38.058;2023-04-01T03:32:37;98970.84;;;3.49;79.07
71126;BME280;58785;55.566;38.058;2023-04-01T03:35:03;98969.88;;;3.50;78.83
71126;BME280;58785;55.566;38.058;2023-04-01T03:37:30;98974.31;;;3.49;78.58
71126;BME280;58785;55.566;38.058;2023-04-01T03:39:55;98964.88;;;3.46;78.89
71126;BME280;58785;55.566;38.058;2023-04-01T03:42:21;98974.19;;;3.51;78.53
71126;BME280;58785;55.566;38.058;2023-04-01T03:44:47;98979.22;;;3.54;78.94
71126;BME280;58785;55.566;38.058;2023-04-01T03:47:12;98973.13;;;3.53;79.01
71126;BME280;58785;55.566;38.058;2023-04-01T03:49:38;98973.81;;;3.55;78.49
71126;BME280;58785;55.566;38.058;2023-04-01T03:52:03;98988.97;;;3.63;78.61
71126;BME280;58785;55.566;38.058;2023-04-01T03:54:29;98977.75;;;3.61;78.57
71126;BME280;58785;55.566;38.058;2023-04-01T03:56:55;98990.09;;;3.70;78.69
71126;BME280;58785;55.566;38.058;2023-04-01T03:59:23;98988.88;;;3.74;78.10
71126;BME280;58785;55.566;38.058;2023-04-01T04:01:48;98990.41;;;3.77;78.42
71126;BME280;58785;55.566;38.058;2023-04-01T04:04:14;98996.66;;;3.75;78.34
71126;BME280;58785;55.566;38.058;2023-04-01T04:06:41;99002.25;;;3.82;78.33
71126;BME280;58785;55.566;38.058;2023-04-01T04:09:07;99000.69;;;3.80;78.25
71126;BME280;58785;55.566;38.058;2023-04-01T04:11:32;98999.63;;;3.82;78.23
71126;BME280;58785;55.566;38.058;2023-04-01T04:13:58;99017.28;;;3.91;77.88
71126;BME280;58785;55.566;38.058;2023-04-01T04:16:24;99007.25;;;3.85;77.84
71126;BME280;58785;55.566;38.058;2023-04-01T04:18:49;99016.31;;;3.92;77.78
71126;BME280;58785;55.566;38.058;2023-04-01T04:21:16;99021.59;;;3.92;77.45
71126;BME280;58785;55.566;38.058;2023-04-01T04:23:42;99017.38;;;3.90;77.77
71126;BME280;58785;55.566;38.058;2023-04-01T04:26:11;99023.63;;;3.89;78.03
71126;BME280;58785;55.566;38.058;2023-04-01T04:28:37;99020.44;;;3.85;77.92
71126;BME280;58785;55.566;38.058;2023-04-01T04:31:03;99031.16;;;3.93;77.80
71126;BME280;58785;55.566;38.058;2023-04-01T04:33:34;99029.38;;;3.94;77.77
71126;BME280;58785;55.566;38.058;2023-04-01T04:36:00;99034.22;;;3.98;78.00
71126;BME280;58785;55.566;38.058;2023-04-01T04:38:26;99030.47;;;3.91;78.02
71126;BME280;58785;55.566;38.058;2023-04-01T04:40:52;99028.34;;;3.85;78.11
71126;BME280;58785;55.566;38.058;2023-04-01T04:43:18;99046.16;;;3.93;78.01
71126;BME280;58785;55.566;38.058;2023-04-01T04:45:44;99031.16;;;3.93;77.91
71126;BME280;58785;55.566;38.058;2023-04-01T04:48:11;99045.38;;;4.02;77.53
71126;BME280;58785;55.566;38.058;2023-04-01T04:50:41;99048.56;;;4.06;77.42
71126;BME280;58785;55.566;38.058;2023-04-01T04:53:12;99034.53;;;4.05;77.83
71126;BME280;58785;55.566;38.058;2023-04-01T04:55:43;99051.06;;;4.07;77.67
71126;BME280;58785;55.566;38.058;2023-04-01T04:58:09;99036.16;;;3.96;77.81
71126;BME280;58785;55.566;38.058;2023-04-01T05:00:35;99043.69;;;4.01;77.96
71126;BME280;58785;55.566;38.058;2023-04-01T05:03:00;99054.81;;;4.04;77.71
71126;BME280;58785;55.566;38.058;2023-04-01T05:05:26;99050.06;;;3.98;77.77
71126;BME280;58785;55.566;38.058;2023-04-01T05:07:51;99053.28;;;4.02;77.52
71126;BME280;58785;55.566;38.058;2023-04-01T05:10:17;99052.44;;;4.01;77.95
71126;BME280;58785;55.566;38.058;2023-04-01T05:12:43;99050.75;;;4.00;78.00
71126;BME280;58785;55.566;38.058;2023-04-01T05:15:08;99048.00;;;4.02;77.97
71126;BME280;58785;55.566;38.058;2023-04-01T05:17:34;99054.25;;;4.11;77.68
71126;BME280;58785;55.566;38.058;2023-04-01T05:20:00;99053.03;;;4.15;77.61
71126;BME280;58785;55.566;38.058;2023-04-01T05:22:26;99054.44;;;4.19;77.58
71126;BME280;58785;55.566;38.058;2023-04-01T05:24:52;99060.03;;;4.25;77.10
71126;BME280;58785;55.566;38.058;2023-04-01T05:27:18;99054.34;;;4.30;77.15
71126;BME280;58785;55.566;38.058;2023-04-01T05:29:44;99057.75;;;4.42;77.34
71126;BME280;58785;55.566;38.058;2023-04-01T05:32:09;99060.66;;;4.48;77.03
71126;BME280;58785;55.566;38.058;2023-04-01T05:34:35;99052.50;;;4.51;76.83
71126;BME280;58785;55.566;38.058;2023-04-01T05:37:01;99055.53;;;4.56;76.61
71126;BME280;58785;55.566;38.058;2023-04-01T05:39:26;99067.38;;;4.62;76.64
71126;BME280;58785;55.566;38.058;2023-04-01T05:41:52;99061.50;;;4.58;76.75
71126;BME280;58785;55.566;38.058;2023-04-01T05:44:17;99070.72;;;4.64;76.70
71126;BME280;58785;55.566;38.058;2023-04-01T05:46:43;99072.25;;;4.67;76.68
71126;BME280;58785;55.566;38.058;2023-04-01T05:49:09;99074.22;;;4.74;76.82
71126;BME280;58785;55.566;38.058;2023-04-01T05:51:34;99080.72;;;4.80;76.48
71126;BME280;58785;55.566;38.058;2023-04-01T05:54:00;99061.69;;;4.76;76.37
71126;BME280;58785;55.566;38.058;2023-04-01T05:56:25;99070.16;;;4.80;76.62
71126;BME280;58785;55.566;38.058;2023-04-01T05:58:53;99073.09;;;4.77;76.39
71126;BME280;58785;55.566;38.058;2023-04-01T06:01:19;99079.75;;;4.81;76.31
71126;BME280;58785;55.566;38.058;2023-04-01T06:03:45;99087.84;;;4.89;76.38
71126;BME280;58785;55.566;38.058;2023-04-01T06:06:19;99088.97;;;4.86;76.42
71126;BME280;58785;55.566;38.058;2023-04-01T06:08:48;99096.22;;;4.94;76.51
71126;BME280;58785;55.566;38.058;2023-04-01T06:14:23;99098.19;;;5.11;75.81
71126;BME280;58785;55.566;38.058;2023-04-01T06:20:06;99103.88;;;5.26;75.79
71126;BME280;58785;55.566;38.058;2023-04-01T06:42:49;99108.28;;;6.03;74.01
71126;BME280;58785;55.566;38.058;2023-04-01T06:53:23;99121.19;;;6.25;74.14
71126;BME280;58785;55.566;38.058;2023-04-01T06:55:59;99124.47;;;6.37;74.28
71126;BME280;58785;55.566;38.058;2023-04-01T06:58:31;99126.75;;;6.32;74.23
71126;BME280;58785;55.566;38.058;2023-04-01T07:01:02;99122.69;;;6.28;74.44
71126;BME280;58785;55.566;38.058;2023-04-01T07:06:00;99126.72;;;6.42;74.13
71126;BME280;58785;55.566;38.058;2023-04-01T07:08:28;99133.97;;;6.67;74.10
71126;BME280;58785;55.566;38.058;2023-04-01T07:11:06;99132.59;;;6.90;73.37
71126;BME280;58785;55.566;38.058;2023-04-01T07:13:49;99142.56;;;7.24;72.32
71126;BME280;58785;55.566;38.058;2023-04-01T07:16:29;99142.59;;;7.42;72.19
71126;BME280;58785;55.566;38.058;2023-04-01T07:21:46;99134.38;;;7.71;72.35
71126;BME280;58785;55.566;38.058;2023-04-01T07:24:26;99141.31;;;7.90;71.89
71126;BME280;58785;55.566;38.058;2023-04-01T07:26:55;99137.69;;;7.91;71.60
71126;BME280;58785;55.566;38.058;2023-04-01T07:29:21;99135.13;;;7.81;71.87
71126;BME280;58785;55.566;38.058;2023-04-01T07:34:35;99139.25;;;7.75;72.27
71126;BME280;58785;55.566;38.058;2023-04-01T07:37:57;99148.19;;;7.74;71.75
71126;BME280;58785;55.566;38.058;2023-04-01T07:45:40;99154.56;;;7.64;72.21
71126;BME280;58785;55.566;38.058;2023-04-01T07:48:37;99149.41;;;7.62;71.97
71126;BME280;58785;55.566;38.058;2023-04-01T07:51:15;99154.56;;;7.64;72.68
71126;BME280;58785;55.566;38.058;2023-04-01T07:53:55;99158.06;;;7.64;71.81
71126;BME280;58785;55.566;38.058;2023-04-01T07:59:29;99166.59;;;7.76;72.26
71126;BME280;58785;55.566;38.058;2023-04-01T08:05:02;99163.94;;;7.94;71.51
71126;BME280;58785;55.566;38.058;2023-04-01T08:10:25;99165.63;;;7.77;72.23
71126;BME280;58785;55.566;38.058;2023-04-01T08:15:28;99183.19;;;7.78;71.96
71126;BME280;58785;55.566;38.058;2023-04-01T08:20:56;99184.44;;;7.84;72.26
71126;BME280;58785;55.566;38.058;2023-04-01T08:23:44;99182.13;;;7.89;71.45
71126;BME280;58785;55.566;38.058;2023-04-01T08:34:45;99196.38;;;8.75;70.24
71126;BME280;58785;55.566;38.058;2023-04-01T08:37:20;99178.16;;;8.88;69.69
71126;BME280;58785;55.566;38.058;2023-04-01T08:39:54;99183.69;;;8.95;69.68
71126;BME280;58785;55.566;38.058;2023-04-01T08:45:20;99187.56;;;8.75;69.69
71126;BME280;58785;55.566;38.058;2023-04-01T08:51:09;99196.25;;;8.85;69.71
71126;BME280;58785;55.566;38.058;2023-04-01T08:54:05;99195.34;;;9.02;69.24
71126;BME280;58785;55.566;38.058;2023-04-01T08:56:41;99194.69;;;9.08;68.61
71126;BME280;58785;55.566;38.058;2023-04-01T09:10:56;99203.66;;;9.66;67.10
71126;BME280;58785;55.566;38.058;2023-04-01T09:19:24;99218.47;;;9.52;67.07
71126;BME280;58785;55.566;38.058;2023-04-01T09:22:13;99209.94;;;9.48;66.89
71126;BME280;58785;55.566;38.058;2023-04-01T09:27:36;99214.63;;;9.71;67.19
71126;BME280;58785;55.566;38.058;2023-04-01T09:30:33;99219.81;;;9.80;66.52
71126;BME280;58785;55.566;38.058;2023-04-01T09:36:38;99216.50;;;9.95;65.94
71126;BME280;58785;55.566;38.058;2023-04-01T09:38:57;99223.50;;;10.04;66.12
71126;BME280;58785;55.566;38.058;2023-04-01T09:41:35;99223.00;;;10.08;65.87
71126;BME280;58785;55.566;38.058;2023-04-01T09:44:23;99230.00;;;10.09;65.77
71126;BME280;58785;55.566;38.058;2023-04-01T09:47:01;99232.19;;;10.14;66.10
71126;BME280;58785;55.566;38.058;2023-04-01T09:49:56;99235.31;;;10.09;65.90
71126;BME280;58785;55.566;38.058;2023-04-01T10:06:27;99252.34;;;10.25;65.12
71126;BME280;58785;55.566;38.058;2023-04-01T10:12:01;99265.16;;;10.38;64.43
71126;BME280;58785;55.566;38.058;2023-04-01T10:20:12;99248.00;;;10.40;64.67
71126;BME280;58785;55.566;38.058;2023-04-01T10:22:59;99240.53;;;10.27;64.87
71126;BME280;58785;55.566;38.058;2023-04-01T10:35:00;99267.16;;;10.27;63.62
71126;BME280;58785;55.566;38.058;2023-04-01T10:57:09;99267.28;;;9.93;63.56
71126;BME280;58785;55.566;38.058;2023-04-01T11:38:31;99271.63;;;10.19;61.94
71126;BME280;58785;55.566;38.058;2023-04-01T11:44:25;99286.94;;;10.17;60.80
71126;BME280;58785;55.566;38.058;2023-04-01T11:49:52;99290.28;;;10.19;60.79
71126;BME280;58785;55.566;38.058;2023-04-01T11:55:52;99297.31;;;10.36;60.33
71126;BME280;58785;55.566;38.058;2023-04-01T12:01:20;99298.81;;;10.39;59.90
71126;BME280;58785;55.566;38.058;2023-04-01T12:03:57;99297.81;;;10.40;59.72
71126;BME280;58785;55.566;38.058;2023-04-01T12:15:21;99296.31;;;10.29;60.46
71126;BME280;58785;55.566;38.058;2023-04-01T12:18:04;99300.31;;;10.33;60.80
71126;BME280;58785;55.566;38.058;2023-04-01T12:20:40;99301.28;;;10.32;60.50
71126;BME280;58785;55.566;38.058;2023-04-01T12:26:12;99303.97;;;10.32;60.55
71126;BME280;58785;55.566;38.058;2023-04-01T12:43:23;99318.75;;;10.18;60.32
71126;BME280;58785;55.566;38.058;2023-04-01T12:51:23;99299.47;;;10.24;59.98
71126;BME280;58785;55.566;38.058;2023-04-01T12:59:44;99325.28;;;10.32;59.54
71126;BME280;58785;55.566;38.058;2023-04-01T13:08:00;99318.91;;;10.08;59.39
71126;BME280;58785;55.566;38.058;2023-04-01T13:16:26;99335.38;;;10.04;60.05
71126;BME280;58785;55.566;38.058;2023-04-01T13:22:29;99342.31;;;9.89;59.75
71126;BME280;58785;55.566;38.058;2023-04-01T13:25:32;99349.97;;;9.84;60.07
71126;BME280;58785;55.566;38.058;2023-04-01T13:28:21;99353.78;;;9.81;60.56
71126;BME280;58785;55.566;38.058;2023-04-01T13:30:49;99357.94;;;9.75;60.53
71126;BME280;58785;55.566;38.058;2023-04-01T13:37:17;99358.06;;;9.66;61.21
71126;BME280;58785;55.566;38.058;2023-04-01T13:42:30;99357.34;;;9.56;61.47
71126;BME280;58785;55.566;38.058;2023-04-01T13:45:15;99361.16;;;9.53;61.32
71126;BME280;58785;55.566;38.058;2023-04-01T13:48:00;99362.00;;;9.54;61.37
71126;BME280;58785;55.566;38.058;2023-04-01T13:56:37;99367.59;;;9.42;62.75
71126;BME280;58785;55.566;38.058;2023-04-01T14:01:42;99373.50;;;9.28;62.93
71126;BME280;58785;55.566;38.058;2023-04-01T14:12:57;99388.81;;;9.08;64.36
71126;BME280;58785;55.566;38.058;2023-04-01T14:23:59;99397.16;;;8.87;64.70
71126;BME280;58785;55.566;38.058;2023-04-01T14:26:34;99394.50;;;8.87;65.56
71126;BME280;58785;55.566;38.058;2023-04-01T14:37:54;99399.44;;;8.82;65.44
71126;BME280;58785;55.566;38.058;2023-04-01T14:40:26;99403.94;;;8.82;65.96
71126;BME280;58785;55.566;38.058;2023-04-01T14:45:36;99413.03;;;8.79;66.14
71126;BME280;58785;55.566;38.058;2023-04-01T14:48:39;99411.66;;;8.75;66.37
71126;BME280;58785;55.566;38.058;2023-04-01T14:51:28;99420.78;;;8.73;66.36
71126;BME280;58785;55.566;38.058;2023-04-01T14:54:14;99417.59;;;8.69;66.65
71126;BME280;58785;55.566;38.058;2023-04-01T14:56:50;99427.69;;;8.66;67.10
71126;BME280;58785;55.566;38.058;2023-04-01T15:02:03;99422.81;;;8.61;67.14
71126;BME280;58785;55.566;38.058;2023-04-01T15:04:37;99430.66;;;8.62;67.28
71126;BME280;58785;55.566;38.058;2023-04-01T15:10:21;99428.75;;;8.55;67.33
71126;BME280;58785;55.566;38.058;2023-04-01T15:18:08;99440.59;;;8.60;67.16
71126;BME280;58785;55.566;38.058;2023-04-01T15:20:53;99439.75;;;8.60;67.39
71126;BME280;58785;55.566;38.058;2023-04-01T15:23:49;99439.91;;;8.58;67.91
71126;BME280;58785;55.566;38.058;2023-04-01T15:45:15;99454.63;;;8.35;68.79
71126;BME280;58785;55.566;38.058;2023-04-01T15:47:54;99461.75;;;8.34;69.37
71126;BME280;58785;55.566;38.058;2023-04-01T15:53:25;99473.34;;;8.33;70.04
71126;BME280;58785;55.566;38.058;2023-04-01T15:56:26;99477.09;;;8.31;70.08
71126;BME280;58785;55.566;38.058;2023-04-01T16:02:20;99483.59;;;8.19;70.73
71126;BME280;58785;55.566;38.058;2023-04-01T16:05:19;99486.72;;;8.14;70.23
71126;BME280;58785;55.566;38.058;2023-04-01T16:10:55;99499.31;;;8.12;71.09
71126;BME280;58785;55.566;38.058;2023-04-01T16:21:21;99497.53;;;8.03;70.66
71126;BME280;58785;55.566;38.058;2023-04-01T16:28:54;99512.63;;;8.02;71.41
71126;BME280;58785;55.566;38.058;2023-04-01T16:31:51;99517.78;;;8.04;71.36
71126;BME280;58785;55.566;38.058;2023-04-01T16:34:39;99515.13;;;8.04;71.64
71126;BME280;58785;55.566;38.058;2023-04-01T16:39:36;99522.28;;;8.03;71.84
71126;BME280;58785;55.566;38.058;2023-04-01T16:44:50;99521.03;;;7.98;71.81
71126;BME280;58785;55.566;38.058;2023-04-01T16:47:22;99524.66;;;7.97;72.32
71126;BME280;58785;55.566;38.058;2023-04-01T16:49:59;99536.13;;;7.97;72.42
71126;BME280;58785;55.566;38.058;2023-04-01T16:55:20;99540.06;;;7.93;72.14
71126;BME280;58785;55.566;38.058;2023-04-01T17:03:14;99538.66;;;7.89;72.85
71126;BME280;58785;55.566;38.058;2023-04-01T17:06:12;99539.47;;;7.90;72.35
71126;BME280;58785;55.566;38.058;2023-04-01T17:17:19;99542.28;;;7.88;73.21
71126;BME280;58785;55.566;38.058;2023-04-01T17:22:50;99554.59;;;7.79;73.36
71126;BME280;58785;55.566;38.058;2023-04-01T17:33:50;99546.28;;;7.55;74.00
71126;BME280;58785;55.566;38.058;2023-04-01T17:36:45;99545.03;;;7.49;74.23
71126;BME280;58785;55.566;38.058;2023-04-01T17:39:28;99554.53;;;7.52;73.88
71126;BME280;58785;55.566;38.058;2023-04-01T17:59:22;99569.47;;;7.53;74.33
71126;BME280;58785;55.566;38.058;2023-04-01T18:02:20;99570.72;;;7.49;74.33
71126;BME280;58785;55.566;38.058;2023-04-01T18:05:03;99574.78;;;7.43;75.35
71126;BME280;58785;55.566;38.058;2023-04-01T18:07:48;99589.72;;;7.44;75.17
71126;BME280;58785;55.566;38.058;2023-04-01T18:10:39;99584.41;;;7.44;74.86
71126;BME280;58785;55.566;38.058;2023-04-01T18:16:34;99590.13;;;7.40;74.99
71126;BME280;58785;55.566;38.058;2023-04-01T18:24:41;99597.09;;;7.31;75.89
71126;BME280;58785;55.566;38.058;2023-04-01T18:27:15;99592.91;;;7.29;75.61
71126;BME280;58785;55.566;38.058;2023-04-01T18:29:49;99592.22;;;7.27;75.75
71126;BME280;58785;55.566;38.058;2023-04-01T18:32:53;99597.38;;;7.28;75.73
71126;BME280;58785;55.566;38.058;2023-04-01T18:38:31;99596.69;;;7.26;76.53
71126;BME280;58785;55.566;38.058;2023-04-01T18:41:18;99595.16;;;7.24;76.25
71126;BME280;58785;55.566;38.058;2023-04-01T18:44:34;99591.81;;;7.22;76.76
71126;BME280;58785;55.566;38.058;2023-04-01T18:47:27;99591.53;;;7.15;76.28
71126;BME280;58785;55.566;38.058;2023-04-01T18:52:42;99602.97;;;7.15;76.21
71126;BME280;58785;55.566;38.058;2023-04-01T18:58:22;99626.69;;;7.17;76.65
71126;BME280;58785;55.566;38.058;2023-04-01T19:01:12;99631.00;;;7.18;76.28
71126;BME280;58785;55.566;38.058;2023-04-01T19:03:54;99626.28;;;7.12;77.22
71126;BME280;58785;55.566;38.058;2023-04-01T19:06:28;99623.72;;;7.10;76.94
71126;BME280;58785;55.566;38.058;2023-04-01T19:09:14;99640.78;;;7.17;77.13
71126;BME280;58785;55.566;38.058;2023-04-01T19:11:55;99637.97;;;7.19;77.23
71126;BME280;58785;55.566;38.058;2023-04-01T19:37:39;99635.78;;;7.34;76.78
71126;BME280;58785;55.566;38.058;2023-04-01T19:43:10;99637.44;;;7.35;77.25
71126;BME280;58785;55.566;38.058;2023-04-01T19:45:51;99627.69;;;7.35;76.40
71126;BME280;58785;55.566;38.058;2023-04-01T19:51:39;99629.06;;;7.39;76.32
71126;BME280;58785;55.566;38.058;2023-04-01T19:54:16;99627.53;;;7.37;76.38
71126;BME280;58785;55.566;38.058;2023-04-01T19:57:12;99630.75;;;7.40;77.10
71126;BME280;58785;55.566;38.058;2023-04-01T19:59:46;99629.91;;;7.40;76.56
71126;BME280;58785;55.566;38.058;2023-04-01T20:04:44;99637.44;;;7.35;76.71
71126;BME280;58785;55.566;38.058;2023-04-01T20:14:51;99667.63;;;7.43;77.45
71126;BME280;58785;55.566;38.058;2023-04-01T20:17:19;99664.97;;;7.43;77.08
71126;BME280;58785;55.566;38.058;2023-04-01T20:25:19;99664.25;;;7.41;77.18
71126;BME280;58785;55.566;38.058;2023-04-01T20:28:04;99662.47;;;7.42;77.57
71126;BME280;58785;55.566;38.058;2023-04-01T20:39:03;99659.50;;;7.35;77.50
71126;BME280;58785;55.566;38.058;2023-04-01T20:41:45;99656.84;;;7.35;77.25
71126;BME280;58785;55.566;38.058;2023-04-01T20:44:32;99657.69;;;7.36;77.11
71126;BME280;58785;55.566;38.058;2023-04-01T20:57:31;99659.06;;;7.40;77.49
71126;BME280;58785;55.566;38.058;2023-04-01T21:05:45;99655.34;;;7.42;77.56
71126;BME280;58785;55.566;38.058;2023-04-01T21:10:58;99664.97;;;7.43;78.05
71126;BME280;58785;55.566;38.058;2023-04-01T21:13:31;99666.63;;;7.44;77.43
71126;BME280;58785;55.566;38.058;2023-04-01T21:34:40;99696.22;;;7.49;77.55
71126;BME280;58785;55.566;38.058;2023-04-01T21:42:26;99703.63;;;7.46;78.17
71126;BME280;58785;55.566;38.058;2023-04-01T21:56:02;99702.78;;;7.45;78.35
71126;BME280;58785;55.566;38.058;2023-04-01T22:07:10;99693.31;;;7.43;78.11
71126;BME280;58785;55.566;38.058;2023-04-01T22:09:44;99702.94;;;7.44;78.56
71126;BME280;58785;55.566;38.058;2023-04-01T22:12:19;99693.00;;;7.36;78.24
71126;BME280;58785;55.566;38.058;2023-04-01T22:14:51;99709.22;;;7.43;78.02
71126;BME280;58785;55.566;38.058;2023-04-01T22:17:37;99705.59;;;7.44;77.96
71126;BME280;58785;55.566;38.058;2023-04-01T22:20:28;99701.81;;;7.46;78.51
71126;BME280;58785;55.566;38.058;2023-04-01T22:30:50;99716.06;;;7.45;78.94
71126;BME280;58785;55.566;38.058;2023-04-01T22:34:00;99723.88;;;7.47;78.75
71126;BME280;58785;55.566;38.058;2023-04-01T22:37:08;99725.41;;;7.49;78.61
71126;BME280;58785;55.566;38.058;2023-04-01T22:42:32;99712.56;;;7.45;78.90
71126;BME280;58785;55.566;38.058;2023-04-01T22:53:42;99735.88;;;7.51;79.54
71126;BME280;58785;55.566;38.058;2023-04-01T22:56:20;99718.56;;;7.47;79.62